createdAt,value
2022-08-20T00:04:24.429Z,17.59
2022-08-20T00:09:26.542Z,17.44
2022-08-20T00:14:31.984Z,17.37
2022-08-20T00:19:35.996Z,17.37
2022-08-20T00:24:38.195Z,17.37
2022-08-20T00:29:40.099Z,17.38
2022-08-20T00:34:42.600Z,17.40
2022-08-20T00:39:44.956Z,17.37
2022-08-20T00:44:47.809Z,17.35
2022-08-20T00:49:49.640Z,17.39
2022-08-20T00:54:59.665Z,17.33
2022-08-20T01:00:04.828Z,17.20
2022-08-20T01:05:09.401Z,17.20
2022-08-20T01:10:20.131Z,17.11
2022-08-20T01:15:30.843Z,17.08
2022-08-20T01:20:46.774Z,17.13
2022-08-20T01:26:04.173Z,17.14
2022-08-20T01:31:08.785Z,17.14
2022-08-20T01:36:12.881Z,17.12
2022-08-20T01:41:36.199Z,17.14
2022-08-20T01:46:43.969Z,17.17
2022-08-20T01:51:46.520Z,17.15
2022-08-20T01:57:04.450Z,17.14
2022-08-20T02:02:07.133Z,17.13
2022-08-20T02:07:15.291Z,17.19
2022-08-20T02:12:18.821Z,17.15
2022-08-20T02:17:23.527Z,17.20
2022-08-20T02:22:31.361Z,17.17
2022-08-20T02:27:33.326Z,17.07
2022-08-20T02:32:37.862Z,17.09
2022-08-20T02:37:42.145Z,17.15
2022-08-20T02:42:44.285Z,17.16
2022-08-20T02:47:46.920Z,17.14
2022-08-20T02:52:48.836Z,16.95
2022-08-20T02:57:59.968Z,16.80
2022-08-20T03:03:02.601Z,16.78
2022-08-20T03:08:07.133Z,16.68
2022-08-20T03:13:12.563Z,16.65
2022-08-20T03:18:15.372Z,16.68
2022-08-20T03:23:19.273Z,16.58
2022-08-20T03:28:21.172Z,16.49
2022-08-20T03:33:24.213Z,16.48
2022-08-20T03:38:32.818Z,16.40
2022-08-20T03:43:35.661Z,16.32
2022-08-20T03:48:37.741Z,16.31
2022-08-20T03:53:39.575Z,16.24
2022-08-20T03:58:41.417Z,16.02
2022-08-20T04:03:43.385Z,15.80
2022-08-20T04:08:45.221Z,15.63
2022-08-20T04:13:47.088Z,15.57
2022-08-20T04:19:01.743Z,15.54
2022-08-20T04:24:05.883Z,15.39
2022-08-20T04:29:07.953Z,15.38
2022-08-20T04:34:09.816Z,15.47
2022-08-20T04:39:11.658Z,15.48
2022-08-20T04:44:13.731Z,15.47
2022-08-20T04:49:15.704Z,15.48
2022-08-20T04:54:17.511Z,15.51
2022-08-20T04:59:19.643Z,15.49
2022-08-20T05:04:21.458Z,15.51
2022-08-20T05:09:23.267Z,15.53
2022-08-20T05:14:25.087Z,15.40
2022-08-20T05:19:29.117Z,15.31
2022-08-20T05:24:31.006Z,15.18
2022-08-20T05:29:32.811Z,15.11
2022-08-20T05:34:34.802Z,15.03
2022-08-20T05:39:37.603Z,15.02
2022-08-20T05:44:39.594Z,15.02
2022-08-20T05:49:41.726Z,15.04
2022-08-20T05:54:43.543Z,15.04
2022-08-20T05:59:45.894Z,15.03
2022-08-20T06:04:47.710Z,15.07
2022-08-20T06:09:58.228Z,15.09
2022-08-20T06:15:00.137Z,15.12
2022-08-20T06:20:09.199Z,15.19
2022-08-20T06:25:11.655Z,15.17
2022-08-20T06:30:15.467Z,15.23
2022-08-20T06:35:20.025Z,15.24
2022-08-20T06:40:25.675Z,15.17
2022-08-20T06:45:30.275Z,15.20
2022-08-20T06:50:43.208Z,15.21
2022-08-20T06:55:54.110Z,15.21
2022-08-20T07:00:55.963Z,15.25
2022-08-20T07:05:58.036Z,15.39
2022-08-20T07:11:00.162Z,15.57
2022-08-20T07:16:05.518Z,15.62
2022-08-20T07:21:08.452Z,15.71
2022-08-20T07:26:10.852Z,15.83
2022-08-20T07:31:31.581Z,15.92
2022-08-20T07:36:36.678Z,16.10
2022-08-20T07:41:38.591Z,16.25
2022-08-20T07:46:40.438Z,16.77
2022-08-20T07:51:42.463Z,17.04
2022-08-20T07:56:44.275Z,17.33
2022-08-20T08:01:46.257Z,17.59
2022-08-20T08:06:48.165Z,17.82
2022-08-20T08:11:50.636Z,17.81
2022-08-20T08:16:59.074Z,18.14
2022-08-20T08:22:00.896Z,18.18
2022-08-20T08:27:02.867Z,18.39
2022-08-20T08:32:06.006Z,18.58
2022-08-20T08:37:07.830Z,18.79
2022-08-20T08:42:37.945Z,18.96
2022-08-20T08:47:43.459Z,18.87
2022-08-20T08:52:47.204Z,19.52
2022-08-20T08:57:49.911Z,19.95
2022-08-20T09:03:00.892Z,20.20
2022-08-20T09:08:07.262Z,20.87
2022-08-20T09:13:09.234Z,21.15
2022-08-20T09:18:11.037Z,21.27
2022-08-20T09:23:12.861Z,21.18
2022-08-20T09:28:14.751Z,20.87
2022-08-20T09:33:16.806Z,21.33
2022-08-20T09:38:18.963Z,21.53
2022-08-20T09:43:23.030Z,21.43
2022-08-20T09:48:31.995Z,21.04
2022-08-20T09:53:34.620Z,20.86
2022-08-20T09:58:54.354Z,20.59
2022-08-20T10:03:55.969Z,20.75
2022-08-20T10:08:57.648Z,20.73
2022-08-20T10:13:59.353Z,21.04
2022-08-20T10:19:01.104Z,20.90
2022-08-20T10:24:03.174Z,20.95
2022-08-20T10:29:04.779Z,20.82
2022-08-20T10:34:06.859Z,21.18
2022-08-20T10:39:08.868Z,21.30
2022-08-20T10:44:10.520Z,21.12
2022-08-20T10:49:13.168Z,21.27
2022-08-20T10:54:15.518Z,21.26
2022-08-20T10:59:17.187Z,21.23
2022-08-20T11:04:18.831Z,21.22
2022-08-20T11:09:20.481Z,21.06
2022-08-20T11:14:22.202Z,21.09
2022-08-20T11:19:23.837Z,21.37
2022-08-20T11:24:25.466Z,21.57
2022-08-20T11:29:30.015Z,21.92
2022-08-20T11:34:35.122Z,21.56
2022-08-20T11:39:41.621Z,21.63
2022-08-20T11:44:43.683Z,21.21
2022-08-20T11:49:45.345Z,21.35
2022-08-20T11:54:46.951Z,21.25
2022-08-20T11:59:50.707Z,21.08
2022-08-20T12:04:52.331Z,21.02
2022-08-20T12:09:54.292Z,21.25
2022-08-20T12:14:55.940Z,21.02
2022-08-20T12:19:59.622Z,20.95
2022-08-20T12:25:01.366Z,20.79
2022-08-20T12:30:07.127Z,20.71
2022-08-20T12:35:10.449Z,20.51
2022-08-20T12:40:16.960Z,20.18
2022-08-20T12:45:23.161Z,20.13
2022-08-20T12:50:30.923Z,20.13
2022-08-20T12:55:33.837Z,19.93
2022-08-20T13:00:44.150Z,19.81
2022-08-20T13:05:49.057Z,19.85
2022-08-20T13:10:50.689Z,19.72
2022-08-20T13:15:52.424Z,19.56
2022-08-20T13:20:54.056Z,19.37
2022-08-20T13:25:58.176Z,19.35
2022-08-20T13:31:02.007Z,19.28
2022-08-20T13:36:03.968Z,19.29
2022-08-20T13:41:05.731Z,19.24
2022-08-20T13:46:07.457Z,19.20
2022-08-20T13:51:09.147Z,19.29
2022-08-20T13:56:10.805Z,19.32
2022-08-20T14:01:12.819Z,19.25
2022-08-20T14:06:14.474Z,19.20
2022-08-20T14:11:17.816Z,19.11
2022-08-20T14:16:27.406Z,19.02
2022-08-20T14:21:39.266Z,19.06
2022-08-20T14:26:40.864Z,19.04
2022-08-20T14:31:42.545Z,19.05
2022-08-20T14:36:44.198Z,19.09
2022-08-20T14:41:49.351Z,19.15
2022-08-20T14:46:50.952Z,19.12
2022-08-20T14:51:52.541Z,19.13
2022-08-20T14:56:54.872Z,19.25
2022-08-20T15:01:56.907Z,19.30
2022-08-20T15:06:59.090Z,19.29
2022-08-20T15:12:09.612Z,19.34
2022-08-20T15:17:12.386Z,19.33
2022-08-20T15:22:14.185Z,19.38
2022-08-20T15:27:22.294Z,19.46
2022-08-20T15:32:24.370Z,19.65
2022-08-20T15:37:26.352Z,19.68
2022-08-20T15:42:28.089Z,19.90
2022-08-20T15:47:34.086Z,20.04
2022-08-20T15:52:42.106Z,20.05
2022-08-20T15:57:55.603Z,20.16
2022-08-20T16:03:30.116Z,20.31
2022-08-20T16:09:07.111Z,20.38
2022-08-20T16:14:19.540Z,20.41
2022-08-20T16:19:27.131Z,20.33
2022-08-20T16:24:28.867Z,20.17
2022-08-20T16:30:00.167Z,20.07
2022-08-20T16:35:26.313Z,19.83
2022-08-20T16:40:49.898Z,19.73
2022-08-20T16:46:02.028Z,19.60
2022-08-20T16:51:09.345Z,19.50
2022-08-20T16:56:11.011Z,19.33
2022-08-20T17:01:14.964Z,19.16
2022-08-20T17:06:28.341Z,19.06
2022-08-20T17:11:32.992Z,18.92
2022-08-20T17:16:51.150Z,18.75
2022-08-20T17:21:52.814Z,18.61
2022-08-20T17:27:01.417Z,18.50
2022-08-20T17:32:19.656Z,18.38
2022-08-20T17:37:25.509Z,18.28
2022-08-20T17:42:27.641Z,18.19
2022-08-20T17:47:34.623Z,18.02
2022-08-20T17:52:48.745Z,17.90
2022-08-20T17:57:56.578Z,17.78
2022-08-20T18:03:14.963Z,17.63
2022-08-20T18:08:29.336Z,17.56
2022-08-20T18:13:55.164Z,17.48
2022-08-20T18:18:59.667Z,17.63
2022-08-20T18:24:14.825Z,17.56
2022-08-20T18:29:27.595Z,17.45
2022-08-20T18:34:29.623Z,17.39
2022-08-20T18:39:34.574Z,17.40
2022-08-20T18:44:43.967Z,17.41
2022-08-20T18:49:47.044Z,17.45
2022-08-20T18:54:58.148Z,17.51
2022-08-20T19:00:08.435Z,17.48
2022-08-20T19:05:12.207Z,17.49
2022-08-20T19:10:39.749Z,17.42
2022-08-20T19:15:51.936Z,17.40
2022-08-20T19:20:59.267Z,17.37
2022-08-20T19:26:03.241Z,17.35
2022-08-20T19:31:14.420Z,17.23
2022-08-20T19:36:28.174Z,17.09
2022-08-20T19:41:39.771Z,17.03
2022-08-20T19:46:45.177Z,17.02
2022-08-20T19:51:48.036Z,17.01
2022-08-20T19:56:49.989Z,16.93
2022-08-20T20:02:02.805Z,17.04
2022-08-20T20:07:09.086Z,16.95
2022-08-20T20:12:22.590Z,16.89
2022-08-20T20:17:30.292Z,16.83
2022-08-20T20:22:47.029Z,16.82
2022-08-20T20:27:58.731Z,16.76
2022-08-20T20:33:11.001Z,16.79
2022-08-20T20:38:27.560Z,16.89
2022-08-20T20:43:39.066Z,16.92
2022-08-20T20:49:09.941Z,16.85
2022-08-20T20:54:40.437Z,16.90
2022-08-20T20:59:42.600Z,16.89
2022-08-20T21:04:44.787Z,16.78
2022-08-20T21:09:47.582Z,16.76
2022-08-20T21:14:49.971Z,16.74
2022-08-20T21:19:52.561Z,16.74
2022-08-20T21:24:54.204Z,16.69
2022-08-20T21:29:56.154Z,16.68
2022-08-20T21:34:57.776Z,16.61
2022-08-20T21:39:59.483Z,16.60
2022-08-20T21:45:01.352Z,16.65
2022-08-20T21:50:04.375Z,16.65
2022-08-20T21:55:07.265Z,16.65
2022-08-20T22:00:17.811Z,16.69
2022-08-20T22:05:19.502Z,16.72
2022-08-20T22:10:21.196Z,16.68
2022-08-20T22:15:22.866Z,16.79
2022-08-20T22:20:25.000Z,16.76
2022-08-20T22:25:26.693Z,16.64
2022-08-20T22:30:28.493Z,16.60
2022-08-20T22:35:31.721Z,16.68
2022-08-20T22:40:33.403Z,16.69
2022-08-20T22:45:35.727Z,16.74
2022-08-20T22:50:38.265Z,16.69
2022-08-20T22:55:40.108Z,16.65
2022-08-20T23:00:44.546Z,16.55
2022-08-20T23:05:47.537Z,16.69
2022-08-20T23:10:49.204Z,16.66
2022-08-20T23:15:53.493Z,16.72
2022-08-20T23:20:59.042Z,16.77
2022-08-20T23:26:00.987Z,16.77
2022-08-20T23:31:02.834Z,16.76
2022-08-20T23:36:09.091Z,16.78
2022-08-20T23:41:10.856Z,16.79
2022-08-20T23:46:13.082Z,16.79
2022-08-20T23:51:14.726Z,16.78
2022-08-20T23:56:17.333Z,16.73
